createdAt,value
2022-11-21T00:00:28.554Z,85.66
2022-11-21T00:02:58.933Z,85.22
2022-11-21T00:05:30.426Z,85.17
2022-11-21T00:08:00.511Z,85.25
2022-11-21T00:10:29.947Z,85.33
2022-11-21T00:13:00.180Z,85.62
2022-11-21T00:15:30.456Z,84.81
2022-11-21T00:18:00.131Z,85.26
2022-11-21T00:20:31.075Z,85.55
2022-11-21T00:23:00.677Z,85.61
2022-11-21T00:25:30.323Z,85.90
2022-11-21T00:27:59.870Z,86.44
2022-11-21T00:30:29.441Z,86.44
2022-11-21T00:32:59.339Z,86.13
2022-11-21T00:35:29.147Z,86.43
2022-11-21T00:38:00.008Z,85.91
2022-11-21T00:40:29.746Z,85.76
2022-11-21T00:42:59.286Z,85.81
2022-11-21T00:45:29.005Z,86.08
2022-11-21T00:47:58.535Z,86.57
2022-11-21T00:50:28.058Z,86.87
2022-11-21T00:52:57.801Z,86.47
2022-11-21T00:55:28.658Z,86.80
2022-11-21T00:57:58.336Z,87.21
2022-11-21T01:00:27.890Z,87.39
2022-11-21T01:02:57.471Z,87.55
2022-11-21T01:05:26.996Z,86.83
2022-11-21T01:07:56.631Z,87.02
2022-11-21T01:10:26.174Z,87.12
2022-11-21T01:12:57.565Z,87.40
2022-11-21T01:15:27.633Z,87.46
2022-11-21T01:17:57.158Z,87.66
2022-11-21T01:20:26.793Z,87.66
2022-11-21T01:22:56.279Z,87.57
2022-11-21T01:25:25.854Z,88.08
2022-11-21T01:27:55.346Z,88.60
2022-11-21T01:30:26.212Z,89.01
2022-11-21T01:32:55.737Z,87.23
2022-11-21T01:35:25.863Z,87.39
2022-11-21T01:37:55.350Z,87.37
2022-11-21T01:40:24.868Z,86.40
2022-11-21T01:42:55.098Z,86.22
2022-11-21T01:45:42.936Z,85.42
2022-11-21T01:48:13.933Z,85.41
2022-11-21T01:50:43.691Z,85.22
2022-11-21T01:53:13.348Z,84.66
2022-11-21T01:55:42.983Z,84.46
2022-11-21T01:58:13.085Z,83.87
2022-11-21T02:00:43.965Z,84.04
2022-11-21T02:03:16.735Z,84.62
2022-11-21T02:05:46.573Z,84.69
2022-11-21T02:08:18.950Z,85.48
2022-11-21T02:10:51.010Z,85.57
2022-11-21T02:13:22.773Z,85.46
2022-11-21T02:15:52.750Z,85.64
2022-11-21T02:18:23.712Z,86.15
2022-11-21T02:20:56.257Z,86.41
2022-11-21T02:23:29.280Z,85.88
2022-11-21T02:26:00.776Z,86.70
2022-11-21T02:28:31.663Z,85.97
2022-11-21T02:31:01.183Z,85.98
2022-11-21T02:33:30.658Z,86.03
2022-11-21T02:36:00.801Z,85.86
2022-11-21T02:38:31.786Z,85.92
2022-11-21T02:41:07.892Z,86.37
2022-11-21T02:43:39.705Z,86.64
2022-11-21T02:46:09.319Z,88.41
2022-11-21T02:48:39.279Z,89.49
2022-11-21T02:51:08.868Z,90.46
2022-11-21T02:53:38.320Z,91.31
2022-11-21T02:56:09.220Z,90.71
2022-11-21T02:58:39.372Z,89.78
2022-11-21T03:01:08.968Z,90.02
2022-11-21T03:03:38.472Z,90.22
2022-11-21T03:06:07.908Z,90.08
2022-11-21T03:08:37.461Z,90.43
2022-11-21T03:11:06.941Z,90.16
2022-11-21T03:13:38.439Z,89.93
2022-11-21T03:16:08.424Z,90.26
2022-11-21T03:18:38.099Z,90.32
2022-11-21T03:21:07.615Z,90.35
2022-11-21T03:23:37.145Z,90.67
2022-11-21T03:26:06.615Z,90.53
2022-11-21T03:28:36.197Z,91.02
2022-11-21T03:31:07.177Z,91.21
2022-11-21T03:33:36.860Z,91.96
2022-11-21T03:36:06.468Z,92.04
2022-11-21T03:38:36.062Z,92.35
2022-11-21T03:41:26.633Z,92.56
2022-11-21T03:43:56.267Z,92.79
2022-11-21T03:46:27.502Z,92.13
2022-11-21T03:48:57.130Z,91.17
2022-11-21T03:51:26.916Z,90.31
2022-11-21T03:53:56.561Z,89.67
2022-11-21T03:56:26.375Z,89.86
2022-11-21T03:58:55.934Z,89.64
2022-11-21T04:01:30.251Z,89.47
2022-11-21T04:04:02.207Z,89.59
2022-11-21T04:06:32.307Z,89.48
2022-11-21T04:09:01.744Z,88.84
2022-11-21T04:11:31.304Z,88.41
2022-11-21T04:14:01.344Z,88.44
2022-11-21T04:16:32.753Z,87.61
2022-11-21T04:19:02.255Z,86.52
2022-11-21T04:21:31.789Z,84.96
2022-11-21T04:24:01.270Z,85.12
2022-11-21T04:26:30.891Z,84.17
2022-11-21T04:29:00.616Z,83.02
2022-11-21T04:31:30.129Z,83.14
2022-11-21T04:34:01.304Z,83.32
2022-11-21T04:36:31.072Z,83.16
2022-11-21T04:39:00.792Z,82.83
2022-11-21T04:41:30.500Z,83.30
2022-11-21T04:44:00.052Z,82.60
2022-11-21T04:46:29.592Z,82.20
2022-11-21T04:48:59.467Z,82.55
2022-11-21T04:51:30.389Z,81.30
2022-11-21T04:54:00.087Z,81.03
2022-11-21T04:56:29.692Z,81.69
2022-11-21T04:58:59.311Z,81.61
2022-11-21T05:01:28.918Z,80.79
2022-11-21T05:03:58.587Z,81.05
2022-11-21T05:06:28.099Z,81.71
2022-11-21T05:08:58.993Z,81.50
2022-11-21T05:11:45.769Z,80.69
2022-11-21T05:14:15.889Z,81.75
2022-11-21T05:16:46.078Z,81.62
2022-11-21T05:19:15.779Z,82.21
2022-11-21T05:21:45.489Z,81.43
2022-11-21T05:24:16.576Z,81.51
2022-11-21T05:26:46.096Z,81.48
2022-11-21T05:29:15.612Z,81.12
2022-11-21T05:31:45.209Z,81.52
2022-11-21T05:34:14.708Z,81.04
2022-11-21T05:36:44.263Z,81.10
2022-11-21T05:39:14.636Z,80.51
2022-11-21T05:41:45.572Z,79.93
2022-11-21T05:44:14.231Z,79.45
2022-11-21T05:46:43.739Z,78.43
2022-11-21T05:49:13.497Z,78.26
2022-11-21T05:51:43.063Z,76.64
2022-11-21T05:54:13.847Z,75.95
2022-11-21T05:56:43.557Z,74.60
2022-11-21T05:59:14.679Z,73.10
2022-11-21T06:02:01.292Z,71.43
2022-11-21T06:04:31.171Z,71.40
2022-11-21T06:07:01.002Z,70.91
2022-11-21T06:09:30.650Z,71.45
2022-11-21T06:12:00.627Z,71.02
2022-11-21T06:14:31.524Z,71.29
2022-11-21T06:17:01.084Z,71.70
2022-11-21T06:19:30.552Z,71.41
2022-11-21T06:22:00.198Z,71.28
2022-11-21T06:24:29.846Z,71.04
2022-11-21T06:27:00.096Z,70.99
2022-11-21T06:29:31.068Z,70.96
2022-11-21T06:32:00.616Z,70.57
2022-11-21T06:34:30.434Z,69.97
2022-11-21T06:37:00.612Z,69.83
2022-11-21T06:39:30.228Z,70.39
2022-11-21T06:41:59.772Z,69.63
2022-11-21T06:44:29.629Z,69.17
2022-11-21T06:47:01.101Z,68.66
2022-11-21T06:49:30.720Z,69.13
2022-11-21T06:52:00.743Z,68.74
2022-11-21T06:54:30.645Z,69.13
2022-11-21T06:57:00.315Z,68.60
2022-11-21T06:59:29.982Z,67.98
2022-11-21T07:01:59.510Z,66.93
2022-11-21T07:04:30.704Z,66.15
2022-11-21T07:07:00.495Z,66.26
2022-11-21T07:09:34.151Z,66.63
2022-11-21T07:12:18.550Z,66.76
2022-11-21T07:14:49.368Z,67.36
2022-11-21T07:17:19.602Z,66.82
2022-11-21T07:19:50.649Z,67.22
2022-11-21T07:22:20.349Z,65.11
2022-11-21T07:24:49.852Z,65.15
2022-11-21T07:27:19.574Z,65.86
2022-11-21T07:29:49.539Z,64.67
2022-11-21T07:32:19.297Z,63.43
2022-11-21T07:34:50.197Z,63.67
2022-11-21T07:37:19.780Z,63.31
2022-11-21T07:39:49.484Z,62.49
2022-11-21T07:42:19.053Z,62.44
2022-11-21T07:44:48.537Z,61.97
2022-11-21T07:47:18.092Z,62.28
2022-11-21T07:49:47.628Z,61.96
2022-11-21T07:52:18.544Z,61.20
2022-11-21T07:54:48.016Z,59.95
2022-11-21T07:57:17.478Z,59.99
2022-11-21T07:59:47.096Z,58.55
2022-11-21T08:02:19.650Z,59.31
2022-11-21T08:04:49.340Z,58.10
2022-11-21T08:07:21.463Z,57.79
2022-11-21T08:09:51.137Z,56.60
2022-11-21T08:12:21.357Z,56.52
2022-11-21T08:14:51.387Z,56.86
2022-11-21T08:17:21.413Z,56.46
2022-11-21T08:19:51.217Z,56.68
2022-11-21T08:22:22.536Z,56.34
2022-11-21T08:24:53.955Z,56.29
2022-11-21T08:27:24.461Z,55.45
2022-11-21T08:29:53.975Z,56.13
2022-11-21T08:32:23.811Z,55.28
2022-11-21T08:34:53.495Z,54.83
2022-11-21T08:37:24.576Z,55.85
2022-11-21T08:39:54.988Z,55.64
2022-11-21T08:42:24.790Z,53.96
2022-11-21T08:44:54.558Z,53.47
2022-11-21T08:47:24.352Z,53.71
2022-11-21T08:49:53.872Z,54.24
2022-11-21T08:52:24.749Z,53.25
2022-11-21T08:54:55.626Z,52.88
2022-11-21T08:57:25.248Z,54.40
2022-11-21T08:59:56.186Z,53.35
2022-11-21T09:02:25.902Z,53.51
2022-11-21T09:04:55.557Z,52.90
2022-11-21T09:07:26.613Z,52.90
2022-11-21T09:09:56.298Z,53.41
2022-11-21T09:12:26.531Z,53.22
2022-11-21T09:15:14.009Z,52.20
2022-11-21T09:18:01.483Z,54.38
2022-11-21T09:20:31.337Z,53.34
2022-11-21T09:23:06.191Z,53.09
2022-11-21T09:25:35.806Z,53.49
2022-11-21T09:28:15.428Z,53.79
2022-11-21T09:30:45.367Z,53.84
2022-11-21T09:33:16.857Z,53.97
2022-11-21T09:35:47.965Z,53.90
2022-11-21T09:38:23.867Z,54.31
2022-11-21T09:40:57.929Z,54.30
2022-11-21T09:43:36.316Z,54.75
2022-11-21T09:46:10.762Z,53.89
2022-11-21T09:48:47.692Z,53.99
2022-11-21T09:51:19.242Z,54.52
2022-11-21T09:53:56.275Z,54.61
2022-11-21T09:56:27.464Z,55.58
2022-11-21T09:59:07.232Z,54.22
2022-11-21T10:01:37.572Z,54.27
2022-11-21T10:04:07.077Z,52.98
2022-11-21T10:06:40.456Z,54.35
2022-11-21T10:09:18.490Z,54.08
2022-11-21T10:12:16.899Z,54.00
2022-11-21T10:14:51.610Z,54.21
2022-11-21T10:17:25.846Z,54.25
2022-11-21T10:20:10.808Z,54.60
2022-11-21T10:22:49.341Z,54.32
2022-11-21T10:25:26.870Z,53.22
2022-11-21T10:28:01.668Z,54.56
2022-11-21T10:30:31.649Z,53.85
2022-11-21T10:33:03.617Z,53.51
2022-11-21T10:35:37.831Z,54.31
2022-11-21T10:38:17.280Z,54.75
2022-11-21T10:40:50.223Z,53.19
2022-11-21T10:43:42.673Z,53.15
2022-11-21T10:46:12.252Z,52.45
2022-11-21T10:48:41.865Z,52.81
2022-11-21T10:51:23.942Z,53.09
2022-11-21T10:54:21.426Z,52.89
2022-11-21T10:56:53.406Z,51.65
2022-11-21T10:59:30.143Z,51.54
2022-11-21T11:02:02.342Z,51.55
2022-11-21T11:04:41.559Z,51.09
2022-11-21T11:07:23.626Z,51.03
2022-11-21T11:09:53.679Z,51.17
2022-11-21T11:12:49.919Z,51.74
2022-11-21T11:15:21.057Z,52.49
2022-11-21T11:17:52.342Z,52.28
2022-11-21T11:20:39.605Z,51.66
2022-11-21T11:23:24.586Z,50.96
2022-11-21T11:25:55.017Z,51.09
2022-11-21T11:28:26.790Z,50.88
2022-11-21T11:30:56.854Z,50.75
2022-11-21T11:33:33.658Z,50.54
2022-11-21T11:36:10.543Z,49.30
2022-11-21T11:38:44.136Z,49.82
2022-11-21T11:41:19.851Z,50.71
2022-11-21T11:44:12.206Z,49.02
2022-11-21T11:47:03.511Z,49.42
2022-11-21T11:49:58.932Z,48.92
2022-11-21T11:52:30.517Z,48.53
2022-11-21T11:55:03.372Z,49.05
2022-11-21T11:57:34.023Z,49.32
2022-11-21T12:00:10.177Z,49.19
2022-11-21T12:02:47.092Z,49.19
2022-11-21T12:05:20.810Z,49.86
2022-11-21T12:11:00.475Z,51.06
2022-11-21T12:13:32.601Z,52.52
2022-11-21T12:16:11.983Z,52.13
2022-11-21T12:18:49.619Z,52.83
2022-11-21T12:21:19.865Z,54.24
2022-11-21T12:23:50.735Z,56.24
2022-11-21T12:26:29.299Z,57.37
2022-11-21T12:29:08.524Z,60.66
2022-11-21T12:31:48.198Z,61.61
2022-11-21T12:34:23.776Z,63.38
2022-11-21T12:36:58.323Z,64.01
2022-11-21T12:39:45.427Z,65.88
2022-11-21T12:42:39.138Z,67.15
2022-11-21T12:45:27.258Z,66.12
2022-11-21T12:48:28.968Z,66.76
2022-11-21T12:51:25.008Z,68.56
2022-11-21T12:54:15.328Z,69.94
2022-11-21T12:56:49.603Z,69.70
2022-11-21T12:59:20.853Z,70.84
2022-11-21T13:01:55.740Z,72.40
2022-11-21T13:04:29.985Z,72.05
2022-11-21T13:07:00.481Z,71.21
2022-11-21T13:09:33.589Z,72.17
2022-11-21T13:12:14.842Z,71.27
2022-11-21T13:14:48.273Z,70.87
2022-11-21T13:17:24.237Z,70.39
2022-11-21T13:19:57.100Z,70.25
2022-11-21T13:22:44.972Z,70.23
2022-11-21T13:25:15.129Z,71.17
2022-11-21T13:27:44.830Z,72.10
2022-11-21T13:30:21.944Z,70.22
2022-11-21T13:32:52.641Z,70.59
2022-11-21T13:35:40.583Z,69.09
2022-11-21T13:38:13.165Z,68.34
2022-11-21T13:41:04.231Z,69.02
2022-11-21T13:43:34.547Z,68.24
2022-11-21T13:46:04.911Z,66.24
2022-11-21T13:48:47.551Z,66.28
2022-11-21T13:51:31.997Z,65.57
2022-11-21T13:54:11.246Z,65.99
2022-11-21T13:56:47.173Z,65.01
2022-11-21T13:59:27.967Z,65.18
2022-11-21T14:02:12.791Z,63.13
2022-11-21T14:04:58.306Z,63.31
2022-11-21T14:07:30.507Z,63.97
2022-11-21T14:10:02.683Z,64.34
2022-11-21T14:12:38.443Z,63.99
2022-11-21T14:15:19.200Z,63.94
2022-11-21T14:17:49.832Z,64.59
2022-11-21T14:20:21.756Z,63.68
2022-11-21T14:22:55.983Z,65.68
2022-11-21T14:25:30.626Z,65.88
2022-11-21T14:28:00.326Z,66.45
2022-11-21T14:30:31.313Z,66.59
2022-11-21T14:33:15.666Z,66.83
2022-11-21T14:35:48.871Z,67.58
2022-11-21T14:38:20.622Z,67.58
2022-11-21T14:40:51.875Z,67.15
2022-11-21T14:43:30.441Z,69.05
2022-11-21T14:46:00.979Z,68.32
2022-11-21T14:48:31.223Z,67.25
2022-11-21T14:51:01.859Z,67.99
2022-11-21T14:53:33.135Z,67.95
2022-11-21T14:56:04.039Z,67.59
2022-11-21T14:58:33.545Z,67.56
2022-11-21T15:01:04.188Z,68.35
2022-11-21T15:03:34.068Z,68.97
2022-11-21T15:06:06.999Z,68.40
2022-11-21T15:11:34.080Z,69.35
2022-11-21T15:14:16.488Z,68.72
2022-11-21T15:16:48.107Z,68.52
2022-11-21T15:19:21.937Z,68.04
2022-11-21T15:21:52.290Z,67.89
2022-11-21T15:24:30.191Z,68.20
2022-11-21T15:27:01.403Z,67.01
2022-11-21T15:29:31.466Z,67.69
2022-11-21T15:32:07.613Z,68.31
2022-11-21T15:34:37.396Z,68.21
2022-11-21T15:37:13.391Z,67.75
2022-11-21T15:39:44.085Z,67.37
2022-11-21T15:42:30.474Z,67.70
2022-11-21T15:45:00.664Z,67.31
2022-11-21T15:47:30.308Z,66.68
2022-11-21T15:50:00.457Z,67.27
2022-11-21T15:52:30.429Z,67.89
2022-11-21T15:54:59.984Z,67.22
2022-11-21T15:57:30.934Z,66.84
2022-11-21T16:00:00.980Z,65.67
2022-11-21T16:02:30.728Z,64.95
2022-11-21T16:05:00.491Z,65.53
2022-11-21T16:07:30.219Z,65.26
2022-11-21T16:10:01.131Z,65.98
2022-11-21T16:12:32.728Z,65.90
2022-11-21T16:15:02.973Z,65.92
2022-11-21T16:17:33.101Z,66.42
2022-11-21T16:20:02.685Z,66.62
2022-11-21T16:22:32.571Z,66.15
2022-11-21T16:25:02.413Z,66.77
2022-11-21T16:27:34.195Z,66.30
2022-11-21T16:30:04.125Z,66.87
2022-11-21T16:32:34.177Z,66.06
2022-11-21T16:35:03.770Z,66.74
2022-11-21T16:37:33.319Z,67.66
2022-11-21T16:40:02.893Z,67.20
2022-11-21T16:42:32.421Z,66.75
2022-11-21T16:45:03.359Z,67.25
2022-11-21T16:47:32.893Z,66.84
2022-11-21T16:50:02.673Z,67.34
2022-11-21T16:52:33.860Z,66.96
2022-11-21T16:55:04.310Z,67.62
2022-11-21T16:57:35.228Z,67.03
2022-11-21T17:00:07.167Z,67.25
2022-11-21T17:02:38.073Z,67.08
2022-11-21T17:05:08.402Z,66.89
2022-11-21T17:07:41.508Z,67.99
2022-11-21T17:10:12.503Z,68.27
2022-11-21T17:12:43.304Z,68.36
2022-11-21T17:15:15.895Z,68.33
2022-11-21T17:17:45.720Z,68.27
2022-11-21T17:20:15.209Z,68.63
2022-11-21T17:22:44.755Z,68.40
2022-11-21T17:25:14.326Z,68.56
2022-11-21T17:27:43.910Z,67.40
2022-11-21T17:30:15.973Z,67.54
2022-11-21T17:32:47.059Z,67.62
2022-11-21T17:35:16.830Z,67.97
2022-11-21T17:37:47.060Z,68.02
2022-11-21T17:40:16.745Z,67.56
2022-11-21T17:42:47.119Z,67.76
2022-11-21T17:45:17.162Z,68.06
2022-11-21T17:47:48.072Z,68.57
2022-11-21T17:50:17.972Z,68.72
2022-11-21T17:52:47.848Z,68.45
2022-11-21T17:55:17.409Z,67.84
2022-11-21T17:57:47.673Z,67.88
2022-11-21T18:00:17.393Z,67.87
2022-11-21T18:02:48.567Z,67.95
2022-11-21T18:05:18.418Z,68.50
2022-11-21T18:07:48.688Z,67.98
2022-11-21T18:10:41.498Z,67.95
2022-11-21T18:13:09.498Z,68.46
2022-11-21T18:15:39.034Z,68.50
2022-11-21T18:18:10.026Z,68.27
2022-11-21T18:20:39.706Z,68.70
2022-11-21T18:23:09.612Z,68.88
2022-11-21T18:25:39.446Z,68.91
2022-11-21T18:28:10.345Z,68.93
2022-11-21T18:30:40.042Z,68.53
2022-11-21T18:33:14.659Z,68.70
2022-11-21T18:35:48.487Z,68.26
2022-11-21T18:38:46.087Z,67.89
2022-11-21T18:41:08.480Z,67.81
2022-11-21T18:43:38.198Z,66.86
2022-11-21T18:46:08.579Z,66.40
2022-11-21T18:49:01.546Z,66.50
2022-11-21T18:51:30.065Z,66.30
2022-11-21T18:54:01.187Z,66.87
2022-11-21T18:56:30.913Z,66.81
2022-11-21T18:59:00.909Z,66.32
2022-11-21T19:01:32.072Z,66.70
2022-11-21T19:04:03.672Z,66.67
2022-11-21T19:06:33.729Z,67.17
2022-11-21T19:09:03.657Z,67.14
2022-11-21T19:11:33.512Z,67.40
2022-11-21T19:14:03.649Z,67.68
2022-11-21T19:16:35.096Z,67.45
2022-11-21T19:21:57.973Z,66.83
2022-11-21T19:24:27.934Z,66.78
2022-11-21T19:26:57.886Z,67.13
2022-11-21T19:29:27.830Z,67.83
2022-11-21T19:31:57.870Z,67.63
2022-11-21T19:34:29.037Z,67.10
2022-11-21T19:36:58.979Z,66.65
2022-11-21T19:39:30.587Z,66.81
2022-11-21T19:42:03.085Z,66.79
2022-11-21T19:44:34.007Z,66.74
2022-11-21T19:47:04.005Z,66.75
2022-11-21T19:49:37.597Z,67.07
2022-11-21T19:52:07.442Z,66.96
2022-11-21T19:54:37.180Z,67.18
2022-11-21T19:57:12.426Z,67.12
2022-11-21T19:59:46.654Z,66.94
2022-11-21T20:02:18.109Z,66.92
2022-11-21T20:04:49.260Z,66.58
2022-11-21T20:07:18.969Z,66.75
2022-11-21T20:09:48.870Z,66.34
2022-11-21T20:12:19.179Z,66.29
2022-11-21T20:14:49.400Z,66.21
2022-11-21T20:17:19.274Z,66.76
2022-11-21T20:19:51.936Z,66.58
2022-11-21T20:22:21.720Z,66.67
2022-11-21T20:24:52.065Z,66.46
2022-11-21T20:27:21.879Z,66.58
2022-11-21T20:29:51.647Z,67.23
2022-11-21T20:32:21.354Z,66.67
2022-11-21T20:34:52.528Z,66.90
2022-11-21T20:37:22.474Z,66.74
2022-11-21T20:39:52.096Z,67.06
2022-11-21T20:42:21.665Z,67.35
2022-11-21T20:46:01.027Z,67.23
2022-11-21T20:47:40.929Z,67.61
2022-11-21T20:50:21.565Z,67.78
2022-11-21T20:55:51.191Z,67.53
2022-11-21T20:58:20.876Z,67.62
2022-11-21T21:00:50.536Z,67.63
2022-11-21T21:03:20.172Z,67.99
2022-11-21T21:05:54.375Z,68.74
2022-11-21T21:08:24.006Z,68.75
2022-11-21T21:11:05.853Z,68.04
2022-11-21T21:13:36.345Z,68.65
2022-11-21T21:16:06.790Z,67.92
2022-11-21T21:18:36.915Z,68.57
2022-11-21T21:21:16.902Z,67.58
2022-11-21T21:23:48.492Z,67.31
2022-11-21T21:26:18.963Z,67.17
2022-11-21T21:28:48.979Z,67.44
2022-11-21T21:31:19.566Z,67.17
2022-11-21T21:33:49.218Z,67.62
2022-11-21T21:36:20.776Z,67.79
2022-11-21T21:38:51.281Z,67.81
2022-11-21T21:41:21.267Z,68.86
2022-11-21T21:43:50.997Z,68.27
2022-11-21T21:46:21.669Z,66.69
2022-11-21T21:48:54.692Z,66.34
2022-11-21T21:51:26.616Z,65.83
2022-11-21T21:53:57.044Z,66.27
2022-11-21T21:56:27.781Z,65.91
2022-11-21T21:58:57.933Z,66.14
2022-11-21T22:01:29.908Z,65.77
2022-11-21T22:04:00.760Z,65.14
2022-11-21T22:06:33.420Z,66.66
2022-11-21T22:09:03.356Z,64.27
2022-11-21T22:11:34.048Z,64.08
2022-11-21T22:14:05.240Z,64.22
2022-11-21T22:16:35.477Z,64.53
2022-11-21T22:19:05.046Z,65.04
2022-11-21T22:21:36.891Z,64.32
2022-11-21T22:24:27.566Z,64.79
2022-11-21T22:26:57.741Z,65.34
2022-11-21T22:29:27.331Z,65.36
2022-11-21T22:31:56.892Z,65.71
2022-11-21T22:34:26.714Z,66.61
2022-11-21T22:36:57.732Z,66.07
2022-11-21T22:39:27.412Z,66.26
2022-11-21T22:41:59.850Z,65.51
2022-11-21T22:44:29.926Z,64.89
2022-11-21T22:46:59.756Z,65.91
2022-11-21T22:49:29.476Z,65.38
2022-11-21T22:52:00.387Z,65.50
2022-11-21T22:54:30.925Z,66.99
2022-11-21T22:57:00.928Z,66.26
2022-11-21T22:59:30.512Z,66.40
2022-11-21T23:02:00.172Z,66.77
2022-11-21T23:04:29.793Z,66.45
2022-11-21T23:07:00.880Z,66.37
2022-11-21T23:09:30.939Z,67.41
2022-11-21T23:12:01.868Z,68.80
2022-11-21T23:14:32.160Z,70.44
2022-11-21T23:17:02.038Z,71.38
2022-11-21T23:19:31.789Z,73.18
2022-11-21T23:22:02.895Z,75.40
2022-11-21T23:24:32.749Z,76.29
2022-11-21T23:27:02.223Z,75.78
2022-11-21T23:29:32.090Z,76.86
2022-11-21T23:32:01.804Z,76.55
2022-11-21T23:34:31.297Z,75.40
2022-11-21T23:37:02.263Z,75.81
2022-11-21T23:39:32.152Z,75.50
2022-11-21T23:42:02.133Z,75.64
2022-11-21T23:44:31.658Z,74.86
2022-11-21T23:47:01.180Z,75.70
2022-11-21T23:49:31.052Z,72.88
2022-11-21T23:52:02.427Z,73.25
2022-11-21T23:54:32.245Z,72.47
2022-11-21T23:57:01.788Z,72.68
2022-11-21T23:59:31.481Z,72.23
